createdAt,value
2018-09-09T00:00:34.482Z,48.56
2018-09-09T00:01:34.418Z,47.99
2018-09-09T00:02:34.384Z,47.92
2018-09-09T00:03:34.336Z,48.78
2018-09-09T00:04:34.298Z,49.06
2018-09-09T00:05:34.306Z,51.06
2018-09-09T00:06:34.307Z,53.06
2018-09-09T00:07:34.198Z,53.92
2018-09-09T00:08:34.145Z,54.49
2018-09-09T00:09:34.116Z,54.88
2018-09-09T00:10:34.085Z,56.49
2018-09-09T00:11:34.035Z,56.30
2018-09-09T00:12:34.002Z,53.92
2018-09-09T00:13:33.967Z,53.92
2018-09-09T00:14:33.924Z,54.30
2018-09-09T00:15:33.897Z,57.26
2018-09-09T00:16:33.842Z,56.59
2018-09-09T00:17:33.822Z,56.11
2018-09-09T00:18:33.779Z,58.50
2018-09-09T00:19:33.732Z,59.54
2018-09-09T00:20:33.684Z,58.50
2018-09-09T00:21:33.669Z,58.69
2018-09-09T00:22:33.639Z,56.30
2018-09-09T00:23:33.578Z,54.56
2018-09-09T00:24:33.538Z,55.83
2018-09-09T00:25:33.495Z,57.35
2018-09-09T00:26:33.475Z,52.18
2018-09-09T00:27:33.433Z,55.42
2018-09-09T00:28:33.385Z,54.94
2018-09-09T00:29:33.949Z,51.04
2018-09-09T00:30:33.308Z,48.27
2018-09-09T00:31:33.279Z,48.18
2018-09-09T00:32:33.232Z,47.13
2018-09-09T00:33:33.207Z,46.56
2018-09-09T00:34:33.162Z,50.85
2018-09-09T00:35:33.133Z,49.90
2018-09-09T00:36:33.087Z,51.23
2018-09-09T00:37:33.052Z,55.42
2018-09-09T00:38:33.006Z,59.42
2018-09-09T00:39:33.055Z,59.32
2018-09-09T00:40:32.941Z,64.28
2018-09-09T00:41:32.891Z,62.27
2018-09-09T00:42:32.850Z,62.18
2018-09-09T00:43:32.821Z,58.84
2018-09-09T00:44:32.778Z,56.46
2018-09-09T00:45:32.746Z,53.70
2018-09-09T00:46:32.727Z,56.46
2018-09-09T00:47:32.659Z,64.47
2018-09-09T00:48:32.655Z,69.07
2018-09-09T00:49:32.609Z,74.40
2018-09-09T00:50:32.546Z,79.80
2018-09-09T00:51:32.502Z,80.75
2018-09-09T00:52:32.471Z,86.18
2018-09-09T00:53:32.439Z,80.84
2018-09-09T00:54:32.397Z,73.32
2018-09-09T00:55:32.444Z,75.32
2018-09-09T00:56:32.318Z,80.04
2018-09-09T00:57:32.310Z,74.43
2018-09-09T00:58:32.244Z,65.38
2018-09-09T00:59:32.199Z,60.34
2018-09-09T01:00:32.158Z,60.15
2018-09-09T01:01:32.129Z,54.35
2018-09-09T01:02:32.080Z,46.54
2018-09-09T01:03:32.037Z,42.16
2018-09-09T01:04:32.028Z,42.16
2018-09-09T01:05:31.957Z,41.40
2018-09-09T01:06:31.930Z,42.35
2018-09-09T01:07:31.899Z,48.73
2018-09-09T01:08:31.921Z,49.11
2018-09-09T01:09:31.812Z,41.59
2018-09-09T01:10:31.774Z,38.64
2018-09-09T01:11:31.735Z,36.93
2018-09-09T01:14:05.710Z,35.21
2018-09-09T01:15:05.465Z,37.88
2018-09-09T01:16:58.530Z,43.87
2018-09-09T01:17:58.410Z,43.11
2018-09-09T01:19:51.442Z,41.97
2018-09-09T01:20:51.438Z,40.73
2018-09-09T01:24:16.882Z,31.50
2018-09-09T01:25:16.870Z,28.36
2018-09-09T01:27:09.856Z,26.93
2018-09-09T01:28:09.768Z,20.65
2018-09-09T01:30:03.199Z,22.27
2018-09-09T01:31:01.934Z,26.46
2018-09-09T01:32:01.564Z,27.60
2018-09-09T01:33:02.715Z,28.45
2018-09-09T01:34:01.056Z,28.64
2018-09-09T01:35:00.444Z,28.93
2018-09-09T01:36:00.475Z,30.93
2018-09-09T01:37:00.356Z,31.98
2018-09-09T01:38:00.341Z,33.78
2018-09-09T01:39:00.280Z,34.64
2018-09-09T01:40:00.252Z,36.07
2018-09-09T01:41:00.218Z,37.02
2018-09-09T01:42:00.181Z,36.35
2018-09-09T01:43:00.283Z,35.31
2018-09-09T01:44:00.103Z,34.45
2018-09-09T01:45:00.058Z,34.18
2018-09-09T01:46:00.033Z,32.56
2018-09-09T01:46:59.989Z,33.14
2018-09-09T01:47:59.986Z,35.04
2018-09-09T01:48:59.907Z,37.42
2018-09-09T01:49:59.866Z,37.99
2018-09-09T01:50:59.817Z,39.80
2018-09-09T01:51:59.798Z,38.56
2018-09-09T01:52:59.743Z,37.52
2018-09-09T01:53:59.708Z,37.13
2018-09-09T01:54:59.691Z,37.61
2018-09-09T01:55:59.633Z,37.71
2018-09-09T01:56:59.609Z,38.28
2018-09-09T01:57:59.544Z,39.32
2018-09-09T01:58:59.505Z,40.47
2018-09-09T01:59:59.487Z,40.75
2018-09-09T02:00:59.443Z,42.56
2018-09-09T02:01:59.401Z,41.52
2018-09-09T02:02:59.359Z,42.66
2018-09-09T02:03:59.330Z,42.18
2018-09-09T02:04:59.282Z,40.56
2018-09-09T02:05:59.261Z,40.85
2018-09-09T02:06:59.223Z,42.18
2018-09-09T02:07:59.239Z,43.51
2018-09-09T02:08:59.137Z,42.47
2018-09-09T02:09:59.113Z,43.23
2018-09-09T02:10:59.056Z,45.23
2018-09-09T02:11:59.019Z,48.18
2018-09-09T02:12:58.977Z,50.27
2018-09-09T02:13:58.953Z,53.99
2018-09-09T02:14:58.922Z,58.65
2018-09-09T02:15:58.865Z,59.80
2018-09-09T02:16:58.935Z,58.75
2018-09-09T02:17:58.788Z,58.18
2018-09-09T02:18:58.758Z,52.75
2018-09-09T02:19:58.712Z,52.56
2018-09-09T02:20:58.672Z,51.51
2018-09-09T02:21:58.635Z,49.99
2018-09-09T02:22:58.608Z,50.75
2018-09-09T02:23:58.612Z,50.68
2018-09-09T02:24:58.534Z,50.56
2018-09-09T02:25:58.527Z,51.23
2018-09-09T02:26:58.442Z,50.94
2018-09-09T02:27:58.491Z,52.37
2018-09-09T02:28:58.369Z,51.35
2018-09-09T02:29:58.320Z,48.47
2018-09-09T02:30:58.302Z,50.56
2018-09-09T02:31:58.339Z,50.46
2018-09-09T02:32:58.204Z,47.16
2018-09-09T02:33:58.159Z,46.18
2018-09-09T02:34:58.137Z,44.85
2018-09-09T02:35:58.192Z,43.99
2018-09-09T02:36:58.053Z,43.51
2018-09-09T02:37:58.041Z,42.96
2018-09-09T02:38:57.972Z,41.44
2018-09-09T02:39:57.931Z,39.25
2018-09-09T02:40:57.938Z,39.34
2018-09-09T02:41:57.863Z,39.34
2018-09-09T02:42:57.863Z,41.44
2018-09-09T02:43:57.797Z,41.44
2018-09-09T02:44:57.750Z,45.15
2018-09-09T02:45:57.716Z,46.11
2018-09-09T02:46:57.668Z,49.63
2018-09-09T02:47:57.625Z,52.59
2018-09-09T02:48:57.628Z,54.21
2018-09-09T02:49:57.543Z,53.06
2018-09-09T02:50:57.523Z,52.59
2018-09-09T02:51:57.498Z,53.83
2018-09-09T02:52:57.490Z,54.30
2018-09-09T02:53:57.400Z,55.16
2018-09-09T02:54:57.392Z,54.49
2018-09-09T02:55:57.326Z,54.68
2018-09-09T02:56:57.280Z,54.59
2018-09-09T02:57:57.248Z,55.35
2018-09-09T02:58:57.254Z,57.07
2018-09-09T02:59:57.255Z,55.42
2018-09-09T03:00:57.144Z,55.26
2018-09-09T03:01:57.088Z,56.37
2018-09-09T03:02:57.066Z,57.26
2018-09-09T03:03:57.018Z,57.32
2018-09-09T03:04:56.990Z,58.28
2018-09-09T03:05:56.952Z,53.70
2018-09-09T03:06:56.900Z,50.46
2018-09-09T03:07:56.863Z,49.99
2018-09-09T03:08:56.823Z,45.61
2018-09-09T03:09:56.780Z,44.66
2018-09-09T03:10:56.733Z,41.23
2018-09-09T03:11:56.713Z,40.75
2018-09-09T03:12:56.677Z,38.28
2018-09-09T03:13:56.637Z,36.08
2018-09-09T03:14:56.586Z,34.85
2018-09-09T03:15:56.543Z,36.08
2018-09-09T03:16:56.520Z,36.85
2018-09-09T03:17:56.475Z,37.52
2018-09-09T03:18:56.438Z,38.18
2018-09-09T03:19:56.411Z,39.23
2018-09-09T03:20:56.364Z,38.75
2018-09-09T03:21:56.329Z,39.80
2018-09-09T03:22:56.272Z,38.18
2018-09-09T03:23:56.274Z,36.66
2018-09-09T03:24:56.200Z,37.06
2018-09-09T03:25:56.174Z,38.09
2018-09-09T03:26:56.129Z,37.54
2018-09-09T03:27:56.106Z,38.29
2018-09-09T03:28:56.046Z,37.73
2018-09-09T03:29:56.022Z,36.87
2018-09-09T03:30:55.980Z,36.77
2018-09-09T03:31:55.938Z,38.29
2018-09-09T03:32:55.918Z,38.78
2018-09-09T03:33:55.900Z,38.87
2018-09-09T03:34:55.828Z,38.10
2018-09-09T03:35:55.861Z,37.63
2018-09-09T03:36:55.771Z,36.87
2018-09-09T03:37:55.709Z,36.20
2018-09-09T03:38:55.719Z,36.10
2018-09-09T03:39:55.641Z,36.77
2018-09-09T03:40:55.601Z,37.15
2018-09-09T03:41:55.562Z,38.49
2018-09-09T03:42:55.517Z,40.68
2018-09-09T03:43:55.498Z,42.30
2018-09-09T03:44:55.479Z,42.30
2018-09-09T03:45:55.413Z,43.82
2018-09-09T03:46:55.373Z,44.39
2018-09-09T03:47:55.335Z,43.91
2018-09-09T03:48:55.296Z,42.20
2018-09-09T03:49:55.256Z,41.35
2018-09-09T03:50:55.285Z,41.44
2018-09-09T03:51:55.248Z,43.73
2018-09-09T03:52:55.136Z,44.01
2018-09-09T03:53:55.105Z,42.20
2018-09-09T03:54:55.057Z,38.96
2018-09-09T03:55:55.133Z,36.96
2018-09-09T03:56:55.027Z,37.82
2018-09-09T03:57:55.046Z,39.53
2018-09-09T03:58:54.905Z,41.35
2018-09-09T03:59:54.886Z,45.35
2018-09-09T04:00:54.837Z,48.78
2018-09-09T04:01:54.800Z,47.82
2018-09-09T04:02:54.756Z,46.11
2018-09-09T04:03:54.724Z,41.53
2018-09-09T04:04:54.701Z,40.77
2018-09-09T04:05:54.687Z,41.16
2018-09-09T04:06:54.615Z,41.44
2018-09-09T04:07:54.616Z,39.92
2018-09-09T04:08:54.526Z,38.78
2018-09-09T04:09:54.499Z,40.77
2018-09-09T04:10:54.451Z,44.30
2018-09-09T04:11:54.429Z,47.82
2018-09-09T04:12:54.376Z,49.82
2018-09-09T04:13:54.371Z,52.59
2018-09-09T04:14:54.301Z,53.52
2018-09-09T04:15:54.266Z,55.32
2018-09-09T04:16:54.227Z,54.27
2018-09-09T04:17:54.195Z,50.27
2018-09-09T04:18:54.155Z,45.32
2018-09-09T04:19:54.154Z,42.37
2018-09-09T04:20:54.093Z,41.04
2018-09-09T04:21:54.027Z,43.80
2018-09-09T04:22:54.005Z,49.51
2018-09-09T04:23:53.970Z,52.18
2018-09-09T04:24:53.923Z,49.04
2018-09-09T04:25:53.876Z,44.94
2018-09-09T04:26:53.843Z,42.28
2018-09-09T04:27:53.908Z,42.28
2018-09-09T04:28:53.811Z,44.75
2018-09-09T04:29:53.744Z,44.46
2018-09-09T04:30:53.726Z,45.70
2018-09-09T04:31:53.654Z,41.33
2018-09-09T04:32:53.654Z,36.66
2018-09-09T04:33:53.591Z,37.42
2018-09-09T04:34:53.543Z,37.13
2018-09-09T04:35:53.536Z,40.75
2018-09-09T04:36:53.526Z,45.23
2018-09-09T04:37:53.443Z,56.65
2018-09-09T04:38:53.383Z,57.99
2018-09-09T04:39:53.342Z,57.42
2018-09-09T04:40:53.348Z,53.70
2018-09-09T04:41:53.270Z,46.47
2018-09-09T04:42:53.229Z,45.32
2018-09-09T04:43:53.200Z,42.28
2018-09-09T04:44:53.152Z,42.08
2018-09-09T04:45:53.106Z,44.75
2018-09-09T04:46:53.100Z,46.84
2018-09-09T04:47:53.031Z,46.83
2018-09-09T04:48:53.002Z,44.46
2018-09-09T04:49:53.010Z,40.94
2018-09-09T04:50:52.920Z,35.89
2018-09-09T04:51:52.883Z,30.66
2018-09-09T04:52:52.840Z,29.04
2018-09-09T04:53:52.810Z,28.19
2018-09-09T04:54:52.768Z,29.14
2018-09-09T04:55:52.748Z,32.28
2018-09-09T04:56:52.687Z,35.13
2018-09-09T04:57:52.648Z,39.70
2018-09-09T04:58:52.615Z,44.94
2018-09-09T04:59:52.564Z,46.09
2018-09-09T05:00:52.552Z,44.75
2018-09-09T05:01:52.506Z,42.47
2018-09-09T05:02:52.466Z,44.09
2018-09-09T05:03:52.429Z,44.56
2018-09-09T05:04:52.389Z,49.04
2018-09-09T05:05:52.346Z,49.04
2018-09-09T05:06:52.301Z,48.18
2018-09-09T05:07:52.286Z,47.23
2018-09-09T05:08:52.231Z,46.18
2018-09-09T05:09:52.205Z,45.32
2018-09-09T05:10:52.156Z,44.18
2018-09-09T05:11:52.180Z,43.44
2018-09-09T05:12:52.077Z,43.63
2018-09-09T05:13:52.076Z,44.30
2018-09-09T05:14:51.995Z,45.35
2018-09-09T05:15:51.968Z,45.25
2018-09-09T05:16:51.975Z,45.35
2018-09-09T05:17:51.878Z,44.96
2018-09-09T05:18:51.952Z,44.20
2018-09-09T05:19:51.809Z,44.20
2018-09-09T05:20:51.778Z,43.44
2018-09-09T05:21:51.727Z,42.77
2018-09-09T05:22:51.713Z,42.87
2018-09-09T05:23:51.659Z,43.25
2018-09-09T05:24:51.619Z,44.49
2018-09-09T05:25:51.703Z,45.63
2018-09-09T05:26:51.579Z,46.01
2018-09-09T05:27:51.499Z,44.78
2018-09-09T05:28:51.480Z,45.15
2018-09-09T05:29:51.478Z,45.06
2018-09-09T05:30:51.405Z,45.63
2018-09-09T05:31:51.407Z,46.30
2018-09-09T05:32:51.323Z,47.92
2018-09-09T05:33:51.285Z,46.97
2018-09-09T05:34:51.244Z,45.15
2018-09-09T05:35:51.229Z,46.42
2018-09-09T05:36:51.222Z,46.51
2018-09-09T05:37:51.155Z,47.56
2018-09-09T05:38:51.093Z,48.52
2018-09-09T05:39:51.045Z,49.28
2018-09-09T05:40:51.013Z,49.18
2018-09-09T05:41:51.001Z,49.85
2018-09-09T05:42:50.955Z,51.09
2018-09-09T05:43:50.950Z,51.85
2018-09-09T05:44:51.131Z,52.26
2018-09-09T05:45:50.837Z,53.97
2018-09-09T05:46:50.782Z,54.83
2018-09-09T05:47:50.768Z,60.36
2018-09-09T05:48:50.718Z,66.09
2018-09-09T05:49:50.712Z,69.14
2018-09-09T05:50:50.655Z,70.28
2018-09-09T05:51:50.595Z,67.99
2018-09-09T05:52:50.570Z,67.14
2018-09-09T05:53:50.587Z,66.38
2018-09-09T05:54:50.515Z,67.14
2018-09-09T05:55:50.477Z,67.61
2018-09-09T05:56:50.418Z,68.47
2018-09-09T05:57:50.457Z,73.72
2018-09-09T05:58:50.396Z,77.82
2018-09-09T05:59:50.316Z,77.06
2018-09-09T06:00:50.271Z,75.05
2018-09-09T06:01:50.251Z,76.52
2018-09-09T06:02:50.200Z,77.28
2018-09-09T06:03:50.179Z,75.85
2018-09-09T06:04:50.121Z,77.95
2018-09-09T06:05:50.132Z,77.19
2018-09-09T06:06:50.084Z,76.46
2018-09-09T06:07:50.004Z,80.85
2018-09-09T06:08:50.005Z,87.06
2018-09-09T06:09:49.946Z,84.10
2018-09-09T06:10:49.931Z,82.19
2018-09-09T06:11:49.861Z,82.57
2018-09-09T06:12:49.885Z,91.26
2018-09-09T06:13:49.848Z,93.46
2018-09-09T06:14:49.757Z,94.60
2018-09-09T06:15:49.756Z,94.46
2018-09-09T06:16:49.717Z,99.99
2018-09-09T06:17:49.639Z,99.99
2018-09-09T06:18:49.620Z,99.99
2018-09-09T06:19:49.569Z,99.99
2018-09-09T06:20:49.555Z,99.99
2018-09-09T06:21:49.507Z,99.99
2018-09-09T06:22:49.477Z,99.99
2018-09-09T06:23:49.427Z,99.99
2018-09-09T06:24:49.383Z,99.99
2018-09-09T06:25:49.339Z,99.99
2018-09-09T06:26:49.365Z,99.99
2018-09-09T06:27:49.333Z,99.99
2018-09-09T06:28:49.253Z,99.99
2018-09-09T06:29:49.206Z,99.99
2018-09-09T06:30:49.260Z,99.99
2018-09-09T06:31:49.131Z,99.99
2018-09-09T06:32:49.112Z,99.99
2018-09-09T06:33:49.102Z,99.99
2018-09-09T06:34:49.034Z,99.99
2018-09-09T06:35:48.983Z,99.99
2018-09-09T06:36:48.949Z,99.99
2018-09-09T06:37:48.909Z,99.99
2018-09-09T06:38:48.882Z,99.99
2018-09-09T06:39:48.845Z,99.99
2018-09-09T06:40:48.820Z,99.99
2018-09-09T06:41:48.777Z,99.99
2018-09-09T06:42:48.746Z,99.99
2018-09-09T06:43:48.702Z,99.99
2018-09-09T06:44:48.679Z,99.99
2018-09-09T06:45:48.663Z,99.99
2018-09-09T06:46:48.639Z,99.99
2018-09-09T06:47:48.561Z,99.99
2018-09-09T06:48:48.567Z,99.99
2018-09-09T06:49:48.511Z,99.99
2018-09-09T06:50:48.474Z,99.99
2018-09-09T06:51:48.427Z,99.99
2018-09-09T06:52:48.404Z,99.99
2018-09-09T06:53:48.386Z,99.99
2018-09-09T06:54:48.332Z,99.99
2018-09-09T06:55:48.306Z,99.99
2018-09-09T06:56:48.253Z,99.99
2018-09-09T06:57:48.266Z,99.99
2018-09-09T06:58:48.215Z,99.99
2018-09-09T06:59:48.220Z,99.99
2018-09-09T07:00:48.125Z,99.99
2018-09-09T07:01:48.086Z,99.99
2018-09-09T07:02:48.048Z,99.99
2018-09-09T07:03:48.020Z,99.99
2018-09-09T07:04:47.984Z,99.99
2018-09-09T07:05:47.953Z,99.99
2018-09-09T07:06:47.909Z,99.99
2018-09-09T07:07:47.893Z,99.99
2018-09-09T07:08:47.841Z,99.99
2018-09-09T07:09:47.811Z,99.99
2018-09-09T07:10:47.910Z,99.99
2018-09-09T07:11:47.910Z,99.99
2018-09-09T07:12:47.718Z,99.99
2018-09-09T07:13:47.681Z,99.99
2018-09-09T07:14:47.642Z,99.99
2018-09-09T07:15:47.615Z,99.99
2018-09-09T07:16:47.613Z,99.99
2018-09-09T07:17:47.550Z,99.99
2018-09-09T07:18:47.532Z,99.99
2018-09-09T07:19:47.524Z,99.99
2018-09-09T07:20:47.449Z,99.99
2018-09-09T07:21:47.470Z,99.99
2018-09-09T07:22:47.442Z,99.99
2018-09-09T07:23:47.364Z,99.99
2018-09-09T07:24:47.322Z,99.99
2018-09-09T07:25:47.287Z,99.99
2018-09-09T07:26:47.327Z,99.99
2018-09-09T07:27:47.231Z,99.99
2018-09-09T07:28:47.196Z,99.99
2018-09-09T07:29:47.173Z,99.99
2018-09-09T07:30:47.125Z,99.99
2018-09-09T07:31:47.139Z,99.99
2018-09-09T07:32:47.078Z,99.99
2018-09-09T07:33:47.550Z,99.99
2018-09-09T07:34:47.015Z,99.99
2018-09-09T07:35:46.990Z,99.99
2018-09-09T07:36:46.932Z,99.99
2018-09-09T07:37:46.912Z,99.99
2018-09-09T07:38:46.864Z,99.99
2018-09-09T07:39:46.855Z,99.99
2018-09-09T07:40:46.830Z,99.99
2018-09-09T07:41:46.832Z,99.99
2018-09-09T07:42:46.767Z,99.99
2018-09-09T07:43:46.716Z,99.99
2018-09-09T07:44:46.684Z,99.99
2018-09-09T07:45:46.657Z,99.99
2018-09-09T07:46:46.614Z,99.99
2018-09-09T07:47:46.597Z,99.99
2018-09-09T07:48:46.555Z,99.99
2018-09-09T07:49:46.587Z,99.99
2018-09-09T07:50:46.569Z,99.99
2018-09-09T07:51:46.491Z,99.99
2018-09-09T07:52:46.429Z,99.99
2018-09-09T07:53:46.393Z,99.99
2018-09-09T07:54:46.366Z,99.99
2018-09-09T07:55:46.340Z,99.99
2018-09-09T07:56:46.308Z,99.99
2018-09-09T07:57:46.270Z,99.99
2018-09-09T07:58:46.268Z,99.99
2018-09-09T07:59:46.247Z,99.99
2018-09-09T08:00:46.264Z,99.99
2018-09-09T08:01:46.156Z,99.99
2018-09-09T08:02:46.141Z,99.99
2018-09-09T08:03:46.090Z,99.99
2018-09-09T08:04:46.069Z,93.62
2018-09-09T08:05:46.021Z,86.14
2018-09-09T08:06:45.999Z,84.84
2018-09-09T08:07:45.967Z,81.47
2018-09-09T08:08:45.932Z,78.06
2018-09-09T08:09:45.905Z,78.15
2018-09-09T08:10:45.880Z,78.77
2018-09-09T08:11:45.852Z,76.26
2018-09-09T08:12:45.894Z,77.17
2018-09-09T08:13:45.843Z,76.98
2018-09-09T08:14:45.791Z,89.75
2018-09-09T08:15:45.722Z,79.75
2018-09-09T08:16:45.745Z,72.42
2018-09-09T08:17:45.699Z,71.45
2018-09-09T08:18:45.658Z,71.78
2018-09-09T08:19:45.635Z,69.17
2018-09-09T08:20:45.612Z,70.90
2018-09-09T08:21:45.592Z,69.88
2018-09-09T08:22:45.560Z,71.66
2018-09-09T08:23:45.570Z,69.78
2018-09-09T08:24:45.573Z,67.17
2018-09-09T08:25:45.500Z,71.33
2018-09-09T08:26:45.549Z,71.00
2018-09-09T08:27:45.474Z,72.26
2018-09-09T08:28:45.387Z,80.47
2018-09-09T08:29:45.363Z,70.97
2018-09-09T08:30:45.441Z,70.10
2018-09-09T08:31:45.310Z,66.05
2018-09-09T08:32:45.286Z,71.20
2018-09-09T08:33:45.677Z,65.78
2018-09-09T08:34:45.334Z,66.85
2018-09-09T08:35:45.692Z,78.73
2018-09-09T08:36:45.179Z,68.20
2018-09-09T08:37:45.134Z,67.62
2018-09-09T08:38:45.172Z,67.40
2018-09-09T08:39:45.120Z,65.56
2018-09-09T08:40:45.057Z,73.28
2018-09-09T08:41:45.051Z,72.42
2018-09-09T08:42:44.994Z,65.91
2018-09-09T08:43:45.016Z,66.20
2018-09-09T08:44:44.996Z,71.45
2018-09-09T08:45:44.902Z,70.97
2018-09-09T08:46:44.868Z,70.48
2018-09-09T08:47:44.884Z,73.48
2018-09-09T08:48:44.827Z,68.07
2018-09-09T08:49:44.800Z,64.53
2018-09-09T08:50:44.834Z,65.24
2018-09-09T08:51:44.747Z,60.02
2018-09-09T08:52:44.716Z,61.76
2018-09-09T08:53:44.694Z,71.36
2018-09-09T08:54:44.665Z,63.53
2018-09-09T08:55:44.606Z,64.04
2018-09-09T08:56:44.587Z,64.72
2018-09-09T08:57:44.572Z,60.47
2018-09-09T08:58:44.572Z,58.89
2018-09-09T08:59:44.573Z,59.76
2018-09-09T09:00:44.510Z,58.60
2018-09-09T09:01:44.484Z,62.40
2018-09-09T09:02:44.447Z,61.92
2018-09-09T09:03:44.426Z,62.79
2018-09-09T09:04:44.445Z,61.43
2018-09-09T09:05:44.389Z,60.63
2018-09-09T09:06:44.324Z,59.44
2018-09-09T09:07:44.421Z,60.25
2018-09-09T09:08:44.261Z,63.24
2018-09-09T09:09:44.291Z,61.22
2018-09-09T09:10:44.270Z,61.31
2018-09-09T09:11:44.301Z,61.60
2018-09-09T09:12:44.162Z,61.31
2018-09-09T09:13:44.156Z,62.08
2018-09-09T09:14:44.145Z,62.25
2018-09-09T09:15:44.089Z,66.69
2018-09-09T09:16:44.086Z,64.66
2018-09-09T09:17:44.106Z,65.43
2018-09-09T09:18:44.081Z,67.43
2018-09-09T09:19:43.960Z,68.59
2018-09-09T09:20:43.990Z,66.56
2018-09-09T09:21:43.949Z,71.19
2018-09-09T09:22:43.903Z,65.69
2018-09-09T09:23:43.923Z,65.30
2018-09-09T09:24:43.834Z,64.43
2018-09-09T09:25:43.798Z,66.49
2018-09-09T09:26:43.775Z,75.57
2018-09-09T09:27:43.734Z,67.75
2018-09-09T09:28:43.722Z,65.37
2018-09-09T09:29:43.692Z,72.42
2018-09-09T09:30:43.798Z,73.77
2018-09-09T09:31:43.626Z,66.14
2018-09-09T09:32:43.616Z,72.90
2018-09-09T09:33:43.594Z,70.81
2018-09-09T09:34:43.624Z,68.84
2018-09-09T09:35:43.531Z,64.37
2018-09-09T09:36:43.549Z,64.66
2018-09-09T09:37:43.455Z,65.82
2018-09-09T09:38:43.451Z,63.02
2018-09-09T09:39:43.410Z,62.54
2018-09-09T09:40:43.401Z,63.82
2018-09-09T09:41:43.347Z,62.95
2018-09-09T09:42:43.318Z,62.86
2018-09-09T09:43:43.291Z,62.28
2018-09-09T09:44:43.340Z,65.01
2018-09-09T09:45:43.236Z,62.28
2018-09-09T09:46:43.200Z,62.86
2018-09-09T09:47:43.177Z,61.41
2018-09-09T09:48:43.157Z,62.66
2018-09-09T09:49:43.119Z,62.37
2018-09-09T09:50:43.137Z,62.12
2018-09-09T09:51:43.066Z,61.63
2018-09-09T09:52:43.046Z,62.86
2018-09-09T09:53:43.029Z,65.56
2018-09-09T09:54:42.984Z,63.56
2018-09-09T09:55:42.951Z,64.14
2018-09-09T09:56:42.931Z,63.56
2018-09-09T09:57:42.891Z,65.88
2018-09-09T09:58:42.869Z,59.99
2018-09-09T09:59:42.835Z,60.83
2018-09-09T10:00:42.803Z,61.51
2018-09-09T10:01:42.787Z,64.59
2018-09-09T10:02:42.774Z,65.59
2018-09-09T10:03:42.765Z,64.72
2018-09-09T10:04:42.720Z,64.27
2018-09-09T10:05:42.681Z,61.73
2018-09-09T10:06:42.726Z,59.60
2018-09-09T10:07:42.684Z,60.86
2018-09-09T10:08:42.611Z,60.96
2018-09-09T10:09:42.566Z,60.67
2018-09-09T10:10:42.535Z,59.96
2018-09-09T10:11:42.498Z,61.12
2018-09-09T10:12:42.482Z,60.64
2018-09-09T10:13:42.475Z,62.15
2018-09-09T10:14:42.421Z,64.31
2018-09-09T10:15:42.392Z,65.30
2018-09-09T10:16:42.356Z,62.31
2018-09-09T10:17:42.379Z,62.98
2018-09-09T10:18:42.330Z,62.89
2018-09-09T10:19:42.278Z,62.21
2018-09-09T10:20:42.316Z,62.85
2018-09-09T10:21:42.232Z,60.27
2018-09-09T10:22:42.201Z,59.05
2018-09-09T10:23:42.229Z,57.17
2018-09-09T10:24:42.169Z,55.35
2018-09-09T10:25:42.156Z,54.96
2018-09-09T10:26:42.098Z,55.16
2018-09-09T10:27:42.110Z,57.97
2018-09-09T10:28:42.039Z,58.45
2018-09-09T10:29:42.031Z,55.90
2018-09-09T10:30:41.982Z,55.88
2018-09-09T10:31:42.021Z,55.85
2018-09-09T10:32:41.982Z,56.92
2018-09-09T10:33:41.930Z,57.86
2018-09-09T10:34:41.908Z,57.34
2018-09-09T10:35:41.901Z,57.31
2018-09-09T10:36:41.834Z,59.73
2018-09-09T10:37:41.790Z,58.73
2018-09-09T10:38:41.770Z,59.67
2018-09-09T10:39:41.754Z,61.73
2018-09-09T10:40:41.728Z,62.31
2018-09-09T10:41:41.692Z,61.83
2018-09-09T10:42:41.730Z,62.82
2018-09-09T10:43:41.692Z,58.89
2018-09-09T10:44:41.633Z,59.86
2018-09-09T10:45:41.623Z,58.63
2018-09-09T10:46:41.644Z,58.04
2018-09-09T10:47:41.541Z,57.95
2018-09-09T10:48:41.521Z,58.04
2018-09-09T10:49:41.490Z,58.14
2018-09-09T10:50:41.452Z,57.46
2018-09-09T10:51:41.463Z,58.72
2018-09-09T10:52:41.473Z,58.39
2018-09-09T10:53:41.374Z,55.64
2018-09-09T10:54:41.359Z,54.67
2018-09-09T10:55:41.376Z,54.06
2018-09-09T10:56:41.309Z,54.86
2018-09-09T10:57:41.271Z,56.23
2018-09-09T10:58:41.262Z,54.55
2018-09-09T10:59:41.292Z,54.35
2018-09-09T11:00:41.209Z,55.04
2018-09-09T11:01:41.203Z,55.10
2018-09-09T11:02:41.166Z,54.79
2018-09-09T11:03:41.130Z,54.75
2018-09-09T11:04:41.077Z,55.36
2018-09-09T11:05:41.061Z,56.98
2018-09-09T11:06:41.052Z,57.37
2018-09-09T11:07:41.029Z,58.24
2018-09-09T11:08:41.003Z,59.11
2018-09-09T11:09:40.955Z,57.01
2018-09-09T11:10:41.317Z,56.75
2018-09-09T11:11:40.975Z,56.20
2018-09-09T11:12:40.927Z,55.67
2018-09-09T11:13:40.961Z,53.32
2018-09-09T11:14:40.848Z,53.22
2018-09-09T11:15:40.835Z,53.10
2018-09-09T11:16:40.792Z,51.11
2018-09-09T11:17:40.784Z,52.01
2018-09-09T11:18:40.745Z,48.30
2018-09-09T11:19:40.726Z,49.76
2018-09-09T11:20:40.687Z,50.43
2018-09-09T11:21:40.660Z,51.62
2018-09-09T11:22:40.669Z,49.51
2018-09-09T11:23:40.701Z,49.71
2018-09-09T11:24:40.618Z,48.15
2018-09-09T11:25:40.583Z,46.20
2018-09-09T11:26:40.591Z,46.88
2018-09-09T11:27:40.559Z,47.54
2018-09-09T11:28:40.503Z,47.71
2018-09-09T11:29:40.483Z,49.71
2018-09-09T11:30:40.468Z,52.72
2018-09-09T11:31:40.427Z,49.00
2018-09-09T11:32:40.403Z,49.46
2018-09-09T11:33:40.401Z,49.82
2018-09-09T11:34:40.351Z,50.31
2018-09-09T11:35:40.389Z,51.67
2018-09-09T11:36:40.324Z,50.89
2018-09-09T11:37:40.306Z,51.76
2018-09-09T11:38:40.268Z,52.29
2018-09-09T11:39:40.257Z,53.65
2018-09-09T11:40:40.277Z,53.72
2018-09-09T11:41:40.211Z,53.63
2018-09-09T11:42:40.185Z,54.49
2018-09-09T11:43:40.178Z,55.36
2018-09-09T11:44:40.243Z,55.30
2018-09-09T11:45:40.123Z,56.87
2018-09-09T11:46:40.103Z,57.48
2018-09-09T11:47:40.075Z,54.58
2018-09-09T11:48:40.114Z,51.98
2018-09-09T11:49:40.047Z,51.89
2018-09-09T11:50:40.058Z,52.66
2018-09-09T11:51:39.981Z,53.44
2018-09-09T11:52:39.987Z,54.48
2018-09-09T11:53:39.935Z,53.41
2018-09-09T11:54:39.910Z,53.73
2018-09-09T11:55:39.877Z,54.80
2018-09-09T11:56:39.863Z,55.43
2018-09-09T11:57:39.861Z,51.65
2018-09-09T11:58:39.812Z,51.23
2018-09-09T11:59:39.795Z,51.98
2018-09-09T12:00:39.796Z,52.83
2018-09-09T12:01:39.762Z,54.11
2018-09-09T12:02:39.720Z,55.99
2018-09-09T12:03:39.708Z,54.34
2018-09-09T12:04:39.684Z,52.72
2018-09-09T12:05:39.667Z,53.20
2018-09-09T12:06:39.640Z,53.15
2018-09-09T12:07:39.619Z,52.15
2018-09-09T12:08:39.680Z,52.18
2018-09-09T12:09:39.614Z,51.43
2018-09-09T12:10:39.546Z,53.27
2018-09-09T12:11:39.520Z,57.47
2018-09-09T12:12:39.528Z,53.39
2018-09-09T12:13:39.497Z,54.07
2018-09-09T12:14:39.475Z,55.36
2018-09-09T12:15:39.408Z,53.30
2018-09-09T12:16:39.392Z,53.20
2018-09-09T12:17:39.387Z,53.37
2018-09-09T12:18:39.348Z,52.59
2018-09-09T12:19:39.355Z,55.99
2018-09-09T12:20:39.307Z,54.92
2018-09-09T12:21:39.298Z,52.56
2018-09-09T12:22:39.291Z,54.50
2018-09-09T12:23:39.324Z,54.31
2018-09-09T12:24:39.221Z,57.15
2018-09-09T12:25:39.223Z,53.75
2018-09-09T12:26:39.162Z,55.28
2018-09-09T12:27:39.148Z,56.28
2018-09-09T12:28:39.112Z,54.63
2018-09-09T12:29:39.099Z,53.92
2018-09-09T12:30:39.681Z,54.28
2018-09-09T12:31:39.051Z,55.74
2018-09-09T12:32:39.068Z,54.38
2018-09-09T12:33:39.003Z,54.96
2018-09-09T12:34:39.015Z,53.12
2018-09-09T12:35:38.967Z,53.24
2018-09-09T12:36:38.927Z,54.31
2018-09-09T12:37:38.941Z,54.63
2018-09-09T12:38:38.890Z,54.70
2018-09-09T12:39:38.872Z,56.40
2018-09-09T12:40:38.838Z,54.44
2018-09-09T12:41:38.816Z,54.63
2018-09-09T12:42:38.792Z,54.44
2018-09-09T12:43:38.769Z,54.72
2018-09-09T12:44:38.751Z,53.75
2018-09-09T12:45:38.720Z,53.27
2018-09-09T12:46:38.691Z,55.82
2018-09-09T12:47:38.669Z,54.17
2018-09-09T12:48:38.648Z,53.81
2018-09-09T12:49:38.609Z,51.97
2018-09-09T12:50:38.608Z,52.76
2018-09-09T12:51:38.578Z,51.01
2018-09-09T12:52:38.565Z,51.09
2018-09-09T12:53:38.535Z,55.36
2018-09-09T12:54:38.503Z,54.83
2018-09-09T12:55:38.511Z,51.40
2018-09-09T12:56:38.466Z,50.34
2018-09-09T12:57:38.438Z,51.21
2018-09-09T12:58:38.421Z,52.01
2018-09-09T12:59:38.391Z,50.43